sensor_id;sensor_type;location;lat;lon;timestamp;P1;durP1;ratioP1;P2;durP2;ratioP2
73456;SDS011;61691;53.072;6.582;2023-09-12T00:00:40;35.05;;;24.60;;
73456;SDS011;61691;53.072;6.582;2023-09-12T00:03:07;36.15;;;24.00;;
73456;SDS011;61691;53.072;6.582;2023-09-12T00:05:33;37.53;;;25.02;;
73456;SDS011;61691;53.072;6.582;2023-09-12T00:08:00;36.45;;;24.52;;
73456;SDS011;61691;53.072;6.582;2023-09-12T00:10:27;37.80;;;25.77;;
73456;SDS011;61691;53.072;6.582;2023-09-12T00:12:54;36.38;;;23.48;;
73456;SDS011;61691;53.072;6.582;2023-09-12T00:15:21;35.15;;;24.52;;
73456;SDS011;61691;53.072;6.582;2023-09-12T00:17:47;36.60;;;25.25;;
73456;SDS011;61691;53.072;6.582;2023-09-12T00:20:15;36.08;;;24.63;;
73456;SDS011;61691;53.072;6.582;2023-09-12T00:22:42;40.38;;;24.90;;
73456;SDS011;61691;53.072;6.582;2023-09-12T00:25:09;37.63;;;24.67;;
73456;SDS011;61691;53.072;6.582;2023-09-12T00:27:35;36.55;;;26.30;;
73456;SDS011;61691;53.072;6.582;2023-09-12T00:30:02;37.55;;;25.73;;
73456;SDS011;61691;53.072;6.582;2023-09-12T00:32:29;37.45;;;25.83;;
73456;SDS011;61691;53.072;6.582;2023-09-12T00:34:56;37.75;;;26.42;;
73456;SDS011;61691;53.072;6.582;2023-09-12T00:37:22;36.97;;;26.38;;
73456;SDS011;61691;53.072;6.582;2023-09-12T00:39:49;38.75;;;25.33;;
73456;SDS011;61691;53.072;6.582;2023-09-12T00:42:17;35.70;;;25.63;;
73456;SDS011;61691;53.072;6.582;2023-09-12T00:44:43;35.45;;;25.00;;
73456;SDS011;61691;53.072;6.582;2023-09-12T00:47:10;38.10;;;24.67;;
73456;SDS011;61691;53.072;6.582;2023-09-12T00:49:38;33.75;;;23.83;;
73456;SDS011;61691;53.072;6.582;2023-09-12T00:52:06;36.78;;;25.42;;
73456;SDS011;61691;53.072;6.582;2023-09-12T00:54:33;37.65;;;25.48;;
73456;SDS011;61691;53.072;6.582;2023-09-12T00:57:00;34.60;;;24.77;;
73456;SDS011;61691;53.072;6.582;2023-09-12T00:59:27;38.28;;;26.23;;
73456;SDS011;61691;53.072;6.582;2023-09-12T01:01:54;36.97;;;25.38;;
73456;SDS011;61691;53.072;6.582;2023-09-12T01:04:22;36.45;;;24.35;;
73456;SDS011;61691;53.072;6.582;2023-09-12T01:07:00;35.70;;;23.17;;
73456;SDS011;61691;53.072;6.582;2023-09-12T01:09:30;35.03;;;23.73;;
73456;SDS011;61691;53.072;6.582;2023-09-12T01:11:57;35.03;;;24.95;;
73456;SDS011;61691;53.072;6.582;2023-09-12T01:14:24;36.30;;;24.95;;
73456;SDS011;61691;53.072;6.582;2023-09-12T01:16:51;38.08;;;26.17;;
73456;SDS011;61691;53.072;6.582;2023-09-12T01:19:17;34.10;;;23.83;;
73456;SDS011;61691;53.072;6.582;2023-09-12T01:24:40;36.50;;;25.40;;
73456;SDS011;61691;53.072;6.582;2023-09-12T01:27:32;35.15;;;25.17;;
73456;SDS011;61691;53.072;6.582;2023-09-12T01:30:02;37.00;;;25.40;;
73456;SDS011;61691;53.072;6.582;2023-09-12T01:32:31;36.28;;;25.38;;
73456;SDS011;61691;53.072;6.582;2023-09-12T01:34:59;38.55;;;25.60;;
73456;SDS011;61691;53.072;6.582;2023-09-12T01:37:26;38.45;;;25.70;;
73456;SDS011;61691;53.072;6.582;2023-09-12T01:39:53;36.75;;;25.55;;
73456;SDS011;61691;53.072;6.582;2023-09-12T01:42:20;36.67;;;24.45;;
73456;SDS011;61691;53.072;6.582;2023-09-12T01:44:49;35.33;;;24.55;;
73456;SDS011;61691;53.072;6.582;2023-09-12T01:47:17;38.90;;;26.33;;
73456;SDS011;61691;53.072;6.582;2023-09-12T01:49:47;37.50;;;25.67;;
73456;SDS011;61691;53.072;6.582;2023-09-12T01:52:18;39.50;;;25.65;;
73456;SDS011;61691;53.072;6.582;2023-09-12T01:54:46;38.72;;;25.15;;
73456;SDS011;61691;53.072;6.582;2023-09-12T01:57:14;36.35;;;25.67;;
73456;SDS011;61691;53.072;6.582;2023-09-12T01:59:41;39.90;;;26.80;;
73456;SDS011;61691;53.072;6.582;2023-09-12T02:02:08;37.67;;;26.52;;
73456;SDS011;61691;53.072;6.582;2023-09-12T02:04:35;38.28;;;25.65;;
73456;SDS011;61691;53.072;6.582;2023-09-12T02:07:01;37.58;;;25.55;;
73456;SDS011;61691;53.072;6.582;2023-09-12T02:09:28;40.70;;;26.75;;
73456;SDS011;61691;53.072;6.582;2023-09-12T02:11:55;38.65;;;26.30;;
73456;SDS011;61691;53.072;6.582;2023-09-12T02:14:21;41.42;;;26.70;;
73456;SDS011;61691;53.072;6.582;2023-09-12T02:16:48;40.30;;;25.35;;
73456;SDS011;61691;53.072;6.582;2023-09-12T02:19:15;41.85;;;28.05;;
73456;SDS011;61691;53.072;6.582;2023-09-12T02:21:41;37.58;;;26.17;;
73456;SDS011;61691;53.072;6.582;2023-09-12T02:24:09;41.97;;;27.05;;
73456;SDS011;61691;53.072;6.582;2023-09-12T02:26:37;42.33;;;27.75;;
73456;SDS011;61691;53.072;6.582;2023-09-12T02:29:04;38.00;;;26.98;;
73456;SDS011;61691;53.072;6.582;2023-09-12T02:31:32;38.72;;;26.60;;
73456;SDS011;61691;53.072;6.582;2023-09-12T02:33:59;38.80;;;26.80;;
73456;SDS011;61691;53.072;6.582;2023-09-12T02:36:26;37.67;;;25.90;;
73456;SDS011;61691;53.072;6.582;2023-09-12T02:38:52;39.17;;;25.50;;
73456;SDS011;61691;53.072;6.582;2023-09-12T02:41:19;41.83;;;27.83;;
73456;SDS011;61691;53.072;6.582;2023-09-12T02:43:46;42.75;;;29.25;;
73456;SDS011;61691;53.072;6.582;2023-09-12T02:46:12;41.05;;;26.88;;
73456;SDS011;61691;53.072;6.582;2023-09-12T02:48:39;41.60;;;27.60;;
73456;SDS011;61691;53.072;6.582;2023-09-12T02:51:06;41.83;;;27.65;;
73456;SDS011;61691;53.072;6.582;2023-09-12T02:53:33;41.35;;;26.67;;
73456;SDS011;61691;53.072;6.582;2023-09-12T02:56:00;40.55;;;26.67;;
73456;SDS011;61691;53.072;6.582;2023-09-12T02:58:26;45.47;;;28.70;;
73456;SDS011;61691;53.072;6.582;2023-09-12T03:00:53;40.97;;;28.17;;
73456;SDS011;61691;53.072;6.582;2023-09-12T03:03:21;44.33;;;27.50;;
73456;SDS011;61691;53.072;6.582;2023-09-12T03:05:56;44.10;;;28.52;;
73456;SDS011;61691;53.072;6.582;2023-09-12T03:08:24;42.00;;;28.20;;
73456;SDS011;61691;53.072;6.582;2023-09-12T03:10:56;44.88;;;28.60;;
73456;SDS011;61691;53.072;6.582;2023-09-12T03:13:27;40.28;;;27.45;;
73456;SDS011;61691;53.072;6.582;2023-09-12T03:15:54;45.28;;;27.70;;
73456;SDS011;61691;53.072;6.582;2023-09-12T03:18:21;41.60;;;28.27;;
73456;SDS011;61691;53.072;6.582;2023-09-12T03:20:47;39.22;;;25.58;;
73456;SDS011;61691;53.072;6.582;2023-09-12T03:23:14;40.63;;;27.30;;
73456;SDS011;61691;53.072;6.582;2023-09-12T03:25:41;37.10;;;25.65;;
73456;SDS011;61691;53.072;6.582;2023-09-12T03:28:07;40.72;;;25.92;;
73456;SDS011;61691;53.072;6.582;2023-09-12T03:30:35;43.20;;;27.00;;
73456;SDS011;61691;53.072;6.582;2023-09-12T03:33:03;39.42;;;27.48;;
73456;SDS011;61691;53.072;6.582;2023-09-12T03:35:33;42.90;;;27.75;;
73456;SDS011;61691;53.072;6.582;2023-09-12T03:38:00;40.53;;;25.80;;
73456;SDS011;61691;53.072;6.582;2023-09-12T03:40:30;40.20;;;27.77;;
73456;SDS011;61691;53.072;6.582;2023-09-12T03:45:24;39.05;;;26.63;;
73456;SDS011;61691;53.072;6.582;2023-09-12T03:47:51;39.30;;;26.00;;
73456;SDS011;61691;53.072;6.582;2023-09-12T03:50:19;40.55;;;26.52;;
73456;SDS011;61691;53.072;6.582;2023-09-12T03:52:45;39.67;;;27.48;;
73456;SDS011;61691;53.072;6.582;2023-09-12T03:55:12;39.17;;;27.00;;
73456;SDS011;61691;53.072;6.582;2023-09-12T03:57:39;40.45;;;27.20;;
73456;SDS011;61691;53.072;6.582;2023-09-12T04:00:06;37.90;;;25.27;;
73456;SDS011;61691;53.072;6.582;2023-09-12T04:02:34;41.17;;;27.55;;
73456;SDS011;61691;53.072;6.582;2023-09-12T04:05:01;38.58;;;25.95;;
73456;SDS011;61691;53.072;6.582;2023-09-12T04:07:27;42.70;;;27.52;;
73456;SDS011;61691;53.072;6.582;2023-09-12T04:09:54;36.95;;;24.95;;
73456;SDS011;61691;53.072;6.582;2023-09-12T04:12:21;42.25;;;27.27;;
73456;SDS011;61691;53.072;6.582;2023-09-12T04:14:49;38.30;;;25.88;;
73456;SDS011;61691;53.072;6.582;2023-09-12T04:17:17;39.87;;;25.83;;
73456;SDS011;61691;53.072;6.582;2023-09-12T04:19:44;39.67;;;27.10;;
73456;SDS011;61691;53.072;6.582;2023-09-12T04:22:10;39.40;;;26.48;;
73456;SDS011;61691;53.072;6.582;2023-09-12T04:24:37;41.88;;;27.42;;
73456;SDS011;61691;53.072;6.582;2023-09-12T04:27:04;40.50;;;26.65;;
73456;SDS011;61691;53.072;6.582;2023-09-12T04:29:34;41.40;;;27.48;;
73456;SDS011;61691;53.072;6.582;2023-09-12T04:32:02;37.53;;;24.25;;
73456;SDS011;61691;53.072;6.582;2023-09-12T04:34:30;37.72;;;25.85;;
73456;SDS011;61691;53.072;6.582;2023-09-12T04:36:57;38.60;;;26.65;;
73456;SDS011;61691;53.072;6.582;2023-09-12T04:39:24;44.25;;;29.02;;
73456;SDS011;61691;53.072;6.582;2023-09-12T04:41:51;46.20;;;29.77;;
73456;SDS011;61691;53.072;6.582;2023-09-12T04:44:17;50.35;;;32.15;;
73456;SDS011;61691;53.072;6.582;2023-09-12T04:46:44;45.10;;;30.25;;
73456;SDS011;61691;53.072;6.582;2023-09-12T04:49:12;50.92;;;33.00;;
73456;SDS011;61691;53.072;6.582;2023-09-12T04:51:39;51.47;;;31.65;;
73456;SDS011;61691;53.072;6.582;2023-09-12T04:54:06;51.50;;;33.45;;
73456;SDS011;61691;53.072;6.582;2023-09-12T04:56:32;54.50;;;33.45;;
73456;SDS011;61691;53.072;6.582;2023-09-12T04:58:59;57.95;;;33.25;;
73456;SDS011;61691;53.072;6.582;2023-09-12T05:01:26;72.85;;;34.63;;
73456;SDS011;61691;53.072;6.582;2023-09-12T05:03:53;52.67;;;33.72;;
73456;SDS011;61691;53.072;6.582;2023-09-12T05:06:19;53.90;;;33.53;;
73456;SDS011;61691;53.072;6.582;2023-09-12T05:08:46;65.60;;;34.15;;
73456;SDS011;61691;53.072;6.582;2023-09-12T05:11:13;60.25;;;34.22;;
73456;SDS011;61691;53.072;6.582;2023-09-12T05:13:39;56.25;;;34.60;;
73456;SDS011;61691;53.072;6.582;2023-09-12T05:16:07;74.97;;;34.65;;
73456;SDS011;61691;53.072;6.582;2023-09-12T05:18:34;64.40;;;33.72;;
73456;SDS011;61691;53.072;6.582;2023-09-12T05:21:01;56.75;;;33.42;;
73456;SDS011;61691;53.072;6.582;2023-09-12T05:23:27;61.28;;;35.42;;
73456;SDS011;61691;53.072;6.582;2023-09-12T05:25:54;63.95;;;34.85;;
73456;SDS011;61691;53.072;6.582;2023-09-12T05:28:21;64.72;;;34.65;;
73456;SDS011;61691;53.072;6.582;2023-09-12T05:30:47;64.35;;;34.45;;
73456;SDS011;61691;53.072;6.582;2023-09-12T05:33:14;60.42;;;34.67;;
73456;SDS011;61691;53.072;6.582;2023-09-12T05:35:41;68.25;;;34.17;;
73456;SDS011;61691;53.072;6.582;2023-09-12T05:38:08;66.28;;;33.35;;
73456;SDS011;61691;53.072;6.582;2023-09-12T05:40:34;50.42;;;31.02;;
73456;SDS011;61691;53.072;6.582;2023-09-12T05:43:01;57.20;;;32.80;;
73456;SDS011;61691;53.072;6.582;2023-09-12T05:45:28;82.38;;;34.97;;
73456;SDS011;61691;53.072;6.582;2023-09-12T05:47:57;64.85;;;34.72;;
73456;SDS011;61691;53.072;6.582;2023-09-12T05:50:23;60.50;;;34.00;;
73456;SDS011;61691;53.072;6.582;2023-09-12T05:52:50;54.90;;;33.80;;
73456;SDS011;61691;53.072;6.582;2023-09-12T05:55:17;56.75;;;31.77;;
73456;SDS011;61691;53.072;6.582;2023-09-12T05:57:44;58.08;;;32.60;;
73456;SDS011;61691;53.072;6.582;2023-09-12T06:00:11;50.28;;;32.10;;
73456;SDS011;61691;53.072;6.582;2023-09-12T06:02:38;58.83;;;33.72;;
73456;SDS011;61691;53.072;6.582;2023-09-12T06:05:06;52.22;;;32.22;;
73456;SDS011;61691;53.072;6.582;2023-09-12T06:07:32;60.78;;;33.03;;
73456;SDS011;61691;53.072;6.582;2023-09-12T06:09:59;54.97;;;34.25;;
73456;SDS011;61691;53.072;6.582;2023-09-12T06:12:27;54.00;;;33.70;;
73456;SDS011;61691;53.072;6.582;2023-09-12T06:14:53;52.83;;;33.08;;
73456;SDS011;61691;53.072;6.582;2023-09-12T06:17:22;53.53;;;34.15;;
73456;SDS011;61691;53.072;6.582;2023-09-12T06:19:49;56.05;;;34.08;;
73456;SDS011;61691;53.072;6.582;2023-09-12T06:22:15;59.00;;;35.60;;
73456;SDS011;61691;53.072;6.582;2023-09-12T06:24:44;53.53;;;33.25;;
73456;SDS011;61691;53.072;6.582;2023-09-12T06:27:11;56.50;;;34.53;;
73456;SDS011;61691;53.072;6.582;2023-09-12T06:29:46;53.78;;;33.70;;
73456;SDS011;61691;53.072;6.582;2023-09-12T06:34:43;55.97;;;33.95;;
73456;SDS011;61691;53.072;6.582;2023-09-12T06:37:10;52.80;;;33.15;;
73456;SDS011;61691;53.072;6.582;2023-09-12T06:39:38;53.47;;;33.15;;
73456;SDS011;61691;53.072;6.582;2023-09-12T06:42:05;53.40;;;33.90;;
73456;SDS011;61691;53.072;6.582;2023-09-12T06:44:32;51.13;;;32.85;;
73456;SDS011;61691;53.072;6.582;2023-09-12T06:46:59;58.85;;;35.05;;
73456;SDS011;61691;53.072;6.582;2023-09-12T06:49:25;53.83;;;34.28;;
73456;SDS011;61691;53.072;6.582;2023-09-12T06:51:52;54.70;;;33.72;;
73456;SDS011;61691;53.072;6.582;2023-09-12T06:54:19;56.15;;;35.50;;
73456;SDS011;61691;53.072;6.582;2023-09-12T06:56:46;54.05;;;35.05;;
73456;SDS011;61691;53.072;6.582;2023-09-12T06:59:12;54.63;;;34.30;;
73456;SDS011;61691;53.072;6.582;2023-09-12T07:01:39;50.17;;;32.83;;
73456;SDS011;61691;53.072;6.582;2023-09-12T07:04:06;55.20;;;34.92;;
73456;SDS011;61691;53.072;6.582;2023-09-12T07:06:33;54.47;;;34.78;;
73456;SDS011;61691;53.072;6.582;2023-09-12T07:09:00;57.08;;;34.97;;
73456;SDS011;61691;53.072;6.582;2023-09-12T07:11:26;53.13;;;33.97;;
73456;SDS011;61691;53.072;6.582;2023-09-12T07:13:53;54.22;;;33.97;;
73456;SDS011;61691;53.072;6.582;2023-09-12T07:16:20;53.70;;;33.95;;
73456;SDS011;61691;53.072;6.582;2023-09-12T07:18:50;52.67;;;33.00;;
73456;SDS011;61691;53.072;6.582;2023-09-12T07:21:17;49.60;;;32.95;;
73456;SDS011;61691;53.072;6.582;2023-09-12T07:23:45;48.92;;;31.67;;
73456;SDS011;61691;53.072;6.582;2023-09-12T07:26:12;52.13;;;32.00;;
73456;SDS011;61691;53.072;6.582;2023-09-12T07:28:40;49.90;;;32.25;;
73456;SDS011;61691;53.072;6.582;2023-09-12T07:31:07;44.40;;;29.90;;
73456;SDS011;61691;53.072;6.582;2023-09-12T07:33:35;47.55;;;31.48;;
73456;SDS011;61691;53.072;6.582;2023-09-12T07:36:01;48.60;;;30.60;;
73456;SDS011;61691;53.072;6.582;2023-09-12T07:38:29;44.78;;;30.40;;
73456;SDS011;61691;53.072;6.582;2023-09-12T07:40:58;46.50;;;31.67;;
73456;SDS011;61691;53.072;6.582;2023-09-12T07:43:27;47.70;;;30.10;;
73456;SDS011;61691;53.072;6.582;2023-09-12T07:45:57;45.20;;;30.65;;
73456;SDS011;61691;53.072;6.582;2023-09-12T07:48:25;45.42;;;29.25;;
73456;SDS011;61691;53.072;6.582;2023-09-12T07:50:51;48.25;;;31.08;;
73456;SDS011;61691;53.072;6.582;2023-09-12T07:53:18;43.53;;;28.58;;
73456;SDS011;61691;53.072;6.582;2023-09-12T07:55:45;41.63;;;27.35;;
73456;SDS011;61691;53.072;6.582;2023-09-12T07:58:16;42.00;;;28.00;;
73456;SDS011;61691;53.072;6.582;2023-09-12T08:00:47;42.00;;;28.60;;
73456;SDS011;61691;53.072;6.582;2023-09-12T08:03:14;40.00;;;27.90;;
73456;SDS011;61691;53.072;6.582;2023-09-12T08:05:42;42.05;;;27.88;;
73456;SDS011;61691;53.072;6.582;2023-09-12T08:08:09;39.13;;;26.58;;
73456;SDS011;61691;53.072;6.582;2023-09-12T08:10:36;39.55;;;27.08;;
73456;SDS011;61691;53.072;6.582;2023-09-12T08:13:03;41.45;;;27.58;;
73456;SDS011;61691;53.072;6.582;2023-09-12T08:15:29;41.50;;;27.20;;
73456;SDS011;61691;53.072;6.582;2023-09-12T08:17:57;41.15;;;27.67;;
73456;SDS011;61691;53.072;6.582;2023-09-12T08:20:23;44.38;;;28.20;;
73456;SDS011;61691;53.072;6.582;2023-09-12T08:22:50;42.13;;;28.10;;
73456;SDS011;61691;53.072;6.582;2023-09-12T08:25:17;39.55;;;27.88;;
73456;SDS011;61691;53.072;6.582;2023-09-12T08:27:44;43.65;;;27.73;;
73456;SDS011;61691;53.072;6.582;2023-09-12T08:30:12;39.05;;;25.80;;
73456;SDS011;61691;53.072;6.582;2023-09-12T08:32:40;39.00;;;27.13;;
73456;SDS011;61691;53.072;6.582;2023-09-12T08:35:14;39.97;;;27.95;;
73456;SDS011;61691;53.072;6.582;2023-09-12T08:37:41;40.03;;;28.00;;
73456;SDS011;61691;53.072;6.582;2023-09-12T08:40:09;42.72;;;27.88;;
73456;SDS011;61691;53.072;6.582;2023-09-12T08:42:41;39.83;;;28.08;;
73456;SDS011;61691;53.072;6.582;2023-09-12T08:45:18;41.53;;;28.73;;
73456;SDS011;61691;53.072;6.582;2023-09-12T08:47:49;42.55;;;29.60;;
73456;SDS011;61691;53.072;6.582;2023-09-12T08:50:18;42.70;;;28.35;;
73456;SDS011;61691;53.072;6.582;2023-09-12T08:52:47;43.47;;;28.70;;
73456;SDS011;61691;53.072;6.582;2023-09-12T08:55:33;42.38;;;29.27;;
73456;SDS011;61691;53.072;6.582;2023-09-12T08:58:02;44.40;;;29.58;;
73456;SDS011;61691;53.072;6.582;2023-09-12T09:00:29;41.10;;;29.35;;
73456;SDS011;61691;53.072;6.582;2023-09-12T09:02:57;45.50;;;29.67;;
73456;SDS011;61691;53.072;6.582;2023-09-12T09:05:25;41.78;;;28.67;;
73456;SDS011;61691;53.072;6.582;2023-09-12T09:07:53;42.25;;;27.42;;
73456;SDS011;61691;53.072;6.582;2023-09-12T09:10:22;39.97;;;28.35;;
73456;SDS011;61691;53.072;6.582;2023-09-12T09:13:07;38.85;;;26.95;;
73456;SDS011;61691;53.072;6.582;2023-09-12T09:15:36;39.90;;;26.60;;
73456;SDS011;61691;53.072;6.582;2023-09-12T09:18:08;39.85;;;27.50;;
73456;SDS011;61691;53.072;6.582;2023-09-12T09:20:37;40.60;;;27.20;;
73456;SDS011;61691;53.072;6.582;2023-09-12T09:23:06;40.03;;;26.73;;
73456;SDS011;61691;53.072;6.582;2023-09-12T09:25:36;40.92;;;28.17;;
73456;SDS011;61691;53.072;6.582;2023-09-12T09:28:20;40.20;;;26.75;;
73456;SDS011;61691;53.072;6.582;2023-09-12T09:30:48;40.40;;;26.52;;
73456;SDS011;61691;53.072;6.582;2023-09-12T09:33:18;43.15;;;28.60;;
73456;SDS011;61691;53.072;6.582;2023-09-12T09:35:48;38.05;;;25.70;;
73456;SDS011;61691;53.072;6.582;2023-09-12T09:38:16;41.70;;;27.65;;
73456;SDS011;61691;53.072;6.582;2023-09-12T09:43:12;42.78;;;26.52;;
73456;SDS011;61691;53.072;6.582;2023-09-12T09:45:45;39.15;;;25.63;;
73456;SDS011;61691;53.072;6.582;2023-09-12T09:50:46;39.67;;;26.38;;
73456;SDS011;61691;53.072;6.582;2023-09-12T09:53:13;40.42;;;25.80;;
73456;SDS011;61691;53.072;6.582;2023-09-12T09:55:40;40.65;;;26.27;;
73456;SDS011;61691;53.072;6.582;2023-09-12T09:58:08;39.97;;;26.08;;
73456;SDS011;61691;53.072;6.582;2023-09-12T10:00:49;40.53;;;25.83;;
73456;SDS011;61691;53.072;6.582;2023-09-12T10:03:18;40.55;;;25.75;;
73456;SDS011;61691;53.072;6.582;2023-09-12T10:05:48;38.88;;;26.48;;
73456;SDS011;61691;53.072;6.582;2023-09-12T10:08:17;39.77;;;26.27;;
73456;SDS011;61691;53.072;6.582;2023-09-12T10:10:45;40.08;;;25.55;;
73456;SDS011;61691;53.072;6.582;2023-09-12T10:13:14;37.20;;;24.80;;
73456;SDS011;61691;53.072;6.582;2023-09-12T10:15:42;37.45;;;25.52;;
73456;SDS011;61691;53.072;6.582;2023-09-12T10:18:12;39.97;;;25.95;;
73456;SDS011;61691;53.072;6.582;2023-09-12T10:20:55;40.03;;;26.02;;
73456;SDS011;61691;53.072;6.582;2023-09-12T10:23:34;39.08;;;25.25;;
73456;SDS011;61691;53.072;6.582;2023-09-12T10:26:12;39.40;;;26.48;;
73456;SDS011;61691;53.072;6.582;2023-09-12T10:28:40;42.55;;;26.85;;
73456;SDS011;61691;53.072;6.582;2023-09-12T10:31:09;37.95;;;24.65;;
73456;SDS011;61691;53.072;6.582;2023-09-12T10:33:38;38.53;;;27.10;;
73456;SDS011;61691;53.072;6.582;2023-09-12T10:36:06;39.35;;;24.73;;
73456;SDS011;61691;53.072;6.582;2023-09-12T10:38:36;38.00;;;24.58;;
73456;SDS011;61691;53.072;6.582;2023-09-12T10:41:13;38.28;;;24.23;;
73456;SDS011;61691;53.072;6.582;2023-09-12T10:43:42;38.45;;;23.92;;
73456;SDS011;61691;53.072;6.582;2023-09-12T10:46:13;35.78;;;22.08;;
73456;SDS011;61691;53.072;6.582;2023-09-12T10:48:39;33.47;;;21.33;;
73456;SDS011;61691;53.072;6.582;2023-09-12T10:51:07;38.78;;;22.30;;
73456;SDS011;61691;53.072;6.582;2023-09-12T10:53:36;33.50;;;21.33;;
73456;SDS011;61691;53.072;6.582;2023-09-12T10:56:24;33.53;;;23.38;;
73456;SDS011;61691;53.072;6.582;2023-09-12T11:01:31;32.10;;;19.60;;
73456;SDS011;61691;53.072;6.582;2023-09-12T11:03:59;33.85;;;22.33;;
73456;SDS011;61691;53.072;6.582;2023-09-12T11:06:54;31.15;;;19.48;;
73456;SDS011;61691;53.072;6.582;2023-09-12T11:09:22;30.98;;;18.98;;
73456;SDS011;61691;53.072;6.582;2023-09-12T11:11:57;28.38;;;17.65;;
73456;SDS011;61691;53.072;6.582;2023-09-12T11:14:34;29.55;;;17.33;;
73456;SDS011;61691;53.072;6.582;2023-09-12T11:20:07;29.98;;;17.45;;
73456;SDS011;61691;53.072;6.582;2023-09-12T11:22:36;28.10;;;16.08;;
73456;SDS011;61691;53.072;6.582;2023-09-12T11:25:23;27.92;;;16.08;;
73456;SDS011;61691;53.072;6.582;2023-09-12T11:30:21;28.98;;;17.80;;
73456;SDS011;61691;53.072;6.582;2023-09-12T11:32:50;31.00;;;16.88;;
73456;SDS011;61691;53.072;6.582;2023-09-12T11:35:22;29.42;;;18.08;;
73456;SDS011;61691;53.072;6.582;2023-09-12T11:37:53;29.10;;;16.45;;
73456;SDS011;61691;53.072;6.582;2023-09-12T11:40:25;26.77;;;15.07;;
73456;SDS011;61691;53.072;6.582;2023-09-12T11:43:01;27.03;;;15.37;;
73456;SDS011;61691;53.072;6.582;2023-09-12T11:45:28;27.90;;;16.90;;
73456;SDS011;61691;53.072;6.582;2023-09-12T11:47:58;30.20;;;15.60;;
73456;SDS011;61691;53.072;6.582;2023-09-12T11:50:28;27.50;;;16.65;;
73456;SDS011;61691;53.072;6.582;2023-09-12T11:53:00;27.58;;;14.50;;
73456;SDS011;61691;53.072;6.582;2023-09-12T11:55:31;27.45;;;13.77;;
73456;SDS011;61691;53.072;6.582;2023-09-12T11:57:59;24.35;;;14.20;;
73456;SDS011;61691;53.072;6.582;2023-09-12T12:00:27;24.77;;;13.65;;
73456;SDS011;61691;53.072;6.582;2023-09-12T12:02:54;22.02;;;12.27;;
73456;SDS011;61691;53.072;6.582;2023-09-12T12:05:21;23.02;;;11.82;;
73456;SDS011;61691;53.072;6.582;2023-09-12T12:07:49;23.70;;;11.45;;
73456;SDS011;61691;53.072;6.582;2023-09-12T12:10:16;20.55;;;9.40;;
73456;SDS011;61691;53.072;6.582;2023-09-12T12:12:44;20.73;;;9.98;;
73456;SDS011;61691;53.072;6.582;2023-09-12T12:15:14;24.85;;;9.60;;
73456;SDS011;61691;53.072;6.582;2023-09-12T12:17:41;21.63;;;10.52;;
73456;SDS011;61691;53.072;6.582;2023-09-12T12:20:09;20.60;;;8.95;;
73456;SDS011;61691;53.072;6.582;2023-09-12T12:22:38;19.23;;;7.95;;
73456;SDS011;61691;53.072;6.582;2023-09-12T12:25:06;22.75;;;9.48;;
73456;SDS011;61691;53.072;6.582;2023-09-12T12:27:40;21.80;;;10.07;;
73456;SDS011;61691;53.072;6.582;2023-09-12T12:30:08;19.67;;;9.75;;
73456;SDS011;61691;53.072;6.582;2023-09-12T12:32:40;21.52;;;10.68;;
73456;SDS011;61691;53.072;6.582;2023-09-12T12:35:18;20.73;;;8.93;;
73456;SDS011;61691;53.072;6.582;2023-09-12T12:38:05;22.02;;;9.10;;
73456;SDS011;61691;53.072;6.582;2023-09-12T12:40:37;21.65;;;10.00;;
73456;SDS011;61691;53.072;6.582;2023-09-12T12:45:52;21.70;;;10.93;;
73456;SDS011;61691;53.072;6.582;2023-09-12T12:48:33;21.55;;;9.85;;
73456;SDS011;61691;53.072;6.582;2023-09-12T12:51:21;22.45;;;8.57;;
73456;SDS011;61691;53.072;6.582;2023-09-12T12:53:50;20.80;;;7.90;;
73456;SDS011;61691;53.072;6.582;2023-09-12T12:56:23;19.42;;;7.55;;
73456;SDS011;61691;53.072;6.582;2023-09-12T12:59:00;18.13;;;7.43;;
73456;SDS011;61691;53.072;6.582;2023-09-12T13:01:30;19.88;;;6.47;;
73456;SDS011;61691;53.072;6.582;2023-09-12T13:03:57;19.10;;;7.32;;
73456;SDS011;61691;53.072;6.582;2023-09-12T13:06:24;18.83;;;6.88;;
73456;SDS011;61691;53.072;6.582;2023-09-12T13:08:54;21.30;;;8.77;;
73456;SDS011;61691;53.072;6.582;2023-09-12T13:11:20;18.65;;;7.43;;
73456;SDS011;61691;53.072;6.582;2023-09-12T13:13:47;19.90;;;8.48;;
73456;SDS011;61691;53.072;6.582;2023-09-12T13:16:15;18.83;;;7.55;;
73456;SDS011;61691;53.072;6.582;2023-09-12T13:18:43;19.58;;;7.60;;
73456;SDS011;61691;53.072;6.582;2023-09-12T13:21:10;19.05;;;7.03;;
73456;SDS011;61691;53.072;6.582;2023-09-12T13:23:37;20.02;;;7.28;;
73456;SDS011;61691;53.072;6.582;2023-09-12T13:26:06;18.10;;;6.45;;
73456;SDS011;61691;53.072;6.582;2023-09-12T13:28:34;19.25;;;7.45;;
73456;SDS011;61691;53.072;6.582;2023-09-12T13:31:00;21.20;;;7.40;;
73456;SDS011;61691;53.072;6.582;2023-09-12T13:33:27;18.52;;;7.50;;
73456;SDS011;61691;53.072;6.582;2023-09-12T13:35:54;18.58;;;6.60;;
73456;SDS011;61691;53.072;6.582;2023-09-12T13:38:21;18.55;;;6.60;;
73456;SDS011;61691;53.072;6.582;2023-09-12T13:40:49;19.17;;;6.72;;
73456;SDS011;61691;53.072;6.582;2023-09-12T13:43:16;18.67;;;6.55;;
73456;SDS011;61691;53.072;6.582;2023-09-12T13:45:43;17.70;;;5.93;;
73456;SDS011;61691;53.072;6.582;2023-09-12T13:48:10;18.02;;;5.78;;
73456;SDS011;61691;53.072;6.582;2023-09-12T13:50:38;15.98;;;5.03;;
73456;SDS011;61691;53.072;6.582;2023-09-12T13:53:06;16.08;;;4.50;;
73456;SDS011;61691;53.072;6.582;2023-09-12T13:55:33;13.48;;;3.70;;
73456;SDS011;61691;53.072;6.582;2023-09-12T13:58:18;14.32;;;4.13;;
73456;SDS011;61691;53.072;6.582;2023-09-12T14:00:45;16.52;;;4.53;;
73456;SDS011;61691;53.072;6.582;2023-09-12T14:03:12;18.05;;;5.75;;
73456;SDS011;61691;53.072;6.582;2023-09-12T14:05:39;18.00;;;5.72;;
73456;SDS011;61691;53.072;6.582;2023-09-12T14:08:07;18.88;;;6.22;;
73456;SDS011;61691;53.072;6.582;2023-09-12T14:10:35;20.55;;;6.85;;
73456;SDS011;61691;53.072;6.582;2023-09-12T14:13:04;18.52;;;6.13;;
73456;SDS011;61691;53.072;6.582;2023-09-12T14:15:34;16.65;;;5.82;;
73456;SDS011;61691;53.072;6.582;2023-09-12T14:18:01;17.27;;;5.68;;
73456;SDS011;61691;53.072;6.582;2023-09-12T14:20:28;16.75;;;5.68;;
73456;SDS011;61691;53.072;6.582;2023-09-12T14:22:56;17.27;;;6.13;;
73456;SDS011;61691;53.072;6.582;2023-09-12T14:25:24;18.40;;;5.60;;
73456;SDS011;61691;53.072;6.582;2023-09-12T14:27:53;19.95;;;5.53;;
73456;SDS011;61691;53.072;6.582;2023-09-12T14:30:20;17.35;;;5.30;;
73456;SDS011;61691;53.072;6.582;2023-09-12T14:32:49;17.92;;;5.43;;
73456;SDS011;61691;53.072;6.582;2023-09-12T14:35:15;17.75;;;5.57;;
73456;SDS011;61691;53.072;6.582;2023-09-12T14:37:42;17.00;;;6.03;;
73456;SDS011;61691;53.072;6.582;2023-09-12T14:40:09;16.98;;;5.25;;
73456;SDS011;61691;53.072;6.582;2023-09-12T14:42:38;17.95;;;5.45;;
73456;SDS011;61691;53.072;6.582;2023-09-12T14:45:05;17.35;;;5.38;;
73456;SDS011;61691;53.072;6.582;2023-09-12T14:47:32;17.88;;;5.80;;
73456;SDS011;61691;53.072;6.582;2023-09-12T14:49:59;17.08;;;5.47;;
73456;SDS011;61691;53.072;6.582;2023-09-12T14:52:26;17.40;;;5.57;;
73456;SDS011;61691;53.072;6.582;2023-09-12T14:54:56;18.33;;;6.00;;